Time,TemperatureF,DewpointF,PressureIn,WindDirection,WindDirectionDegrees,WindSpeedMPH,WindSpeedGustMPH,Humidity,HourlyPrecipIn,Conditions,Clouds,dailyrainin,SoftwareType,DateUTC
2013-11-11 00:02:00,41.0,32.0,29.90,NNE,22,0.0,-999.0,69,-99.99,,,0.00,weatherlink.com 1.10,2013-11-11 05:02:00,
2013-11-11 00:17:00,40.5,31.0,29.91,East,88,0.0,-999.0,70,-99.99,,,0.00,weatherlink.com 1.10,2013-11-11 05:17:00,
2013-11-11 00:32:00,40.1,31.0,29.91,SSE,167,0.0,-999.0,70,-99.99,,,0.00,weatherlink.com 1.10,2013-11-11 05:32:00,
2013-11-11 00:47:00,39.9,31.0,29.92,WSW,251,0.0,-999.0,70,-99.99,,,0.00,weatherlink.com 1.10,2013-11-11 05:47:00,
2013-11-11 01:02:00,40.0,30.0,29.93,WSW,252,3.0,-999.0,68,-99.99,,,0.00,weatherlink.com 1.10,2013-11-11 06:02:00,
2013-11-11 01:18:00,40.3,30.0,29.95,ENE,69,5.0,-999.0,68,-99.99,,,0.00,weatherlink.com 1.10,2013-11-11 06:18:00,
2013-11-11 01:33:00,40.4,30.0,29.95,WNW,287,1.0,-999.0,67,-99.99,,,0.00,weatherlink.com 1.10,2013-11-11 06:33:00,
2013-11-11 01:48:00,39.9,29.0,29.96,West,269,0.0,-999.0,65,-99.99,,,0.00,weatherlink.com 1.10,2013-11-11 06:48:00,
2013-11-11 02:03:00,39.3,29.0,29.96,SSE,161,1.0,-999.0,66,-99.99,,,0.00,weatherlink.com 1.10,2013-11-11 07:03:00,
2013-11-11 02:18:00,38.5,28.0,29.97,WNW,292,2.0,-999.0,67,-99.99,,,0.00,weatherlink.com 1.10,2013-11-11 07:18:00,
2013-11-11 02:33:00,38.4,29.0,29.98,NW,315,0.0,-999.0,68,-99.99,,,0.00,weatherlink.com 1.10,2013-11-11 07:33:00,
2013-11-11 02:48:00,38.2,28.0,29.98,West,264,0.0,-999.0,68,-99.99,,,0.00,weatherlink.com 1.10,2013-11-11 07:48:00,
2013-11-11 03:03:00,38.1,28.0,29.98,NNW,345,0.0,-999.0,68,-99.99,,,0.00,weatherlink.com 1.10,2013-11-11 08:03:00,
2013-11-11 03:18:00,38.2,28.0,29.99,SE,133,1.0,-999.0,68,-99.99,,,0.00,weatherlink.com 1.10,2013-11-11 08:18:00,
2013-11-11 03:33:00,37.7,29.0,29.99,NE,42,0.0,-999.0,70,-99.99,,,0.00,weatherlink.com 1.10,2013-11-11 08:33:00,
2013-11-11 03:48:00,37.8,28.0,29.99,WSW,241,0.0,-999.0,68,-99.99,,,0.00,weatherlink.com 1.10,2013-11-11 08:48:00,
2013-11-11 04:03:00,37.6,28.0,30.01,WNW,293,0.0,-999.0,68,-99.99,,,0.00,weatherlink.com 1.10,2013-11-11 09:03:00,
2013-11-11 04:18:00,37.8,28.0,30.02,ENE,68,0.0,-999.0,68,-99.99,,,0.00,weatherlink.com 1.10,2013-11-11 09:18:00,
2013-11-11 04:33:00,37.6,28.0,30.03,SSE,163,0.0,-999.0,68,-99.99,,,0.00,weatherlink.com 1.10,2013-11-11 09:33:00,
2013-11-11 04:48:00,37.5,28.0,30.05,NNW,327,0.0,-999.0,69,-99.99,,,0.00,weatherlink.com 1.10,2013-11-11 09:48:00,
2013-11-11 05:03:00,37.9,29.0,30.06,SSE,154,0.0,-999.0,69,-99.99,,,0.00,weatherlink.com 1.10,2013-11-11 10:03:00,
2013-11-11 05:18:00,38.2,28.0,30.06,WSW,242,0.0,-999.0,68,-99.99,,,0.00,weatherlink.com 1.10,2013-11-11 10:18:00,
2013-11-11 05:33:00,38.2,28.0,30.06,NW,304,0.0,-999.0,67,-99.99,,,0.00,weatherlink.com 1.10,2013-11-11 10:33:00,
2013-11-11 05:48:00,37.7,28.0,30.07,West,275,1.0,-999.0,68,-99.99,,,0.00,weatherlink.com 1.10,2013-11-11 10:48:00,
2013-11-11 06:03:00,36.9,27.0,30.07,North,9,0.0,-999.0,68,-99.99,,,0.00,weatherlink.com 1.10,2013-11-11 11:03:00,
2013-11-11 06:18:00,36.1,27.0,30.08,North,360,1.0,-999.0,69,-99.99,,,0.00,weatherlink.com 1.10,2013-11-11 11:18:00,
2013-11-11 06:33:00,35.2,26.0,30.09,North,360,0.0,-999.0,70,-99.99,,,0.00,weatherlink.com 1.10,2013-11-11 11:33:00,
2013-11-11 06:48:00,34.4,27.0,30.09,South,184,0.0,-999.0,74,-99.99,,,0.00,weatherlink.com 1.10,2013-11-11 11:48:00,
2013-11-11 07:03:00,34.4,28.0,30.10,South,172,0.0,-999.0,76,-99.99,,,0.00,weatherlink.com 1.10,2013-11-11 12:03:00,
2013-11-11 07:18:00,33.8,27.0,30.11,South,172,0.0,-999.0,76,-99.99,,,0.00,weatherlink.com 1.10,2013-11-11 12:18:00,
2013-11-11 07:33:00,34.4,28.0,30.11,SSW,207,0.0,-999.0,76,-99.99,,,0.00,weatherlink.com 1.10,2013-11-11 12:33:00,
2013-11-11 07:49:00,35.5,28.0,30.11,SSE,153,0.0,-999.0,74,-99.99,,,0.00,weatherlink.com 1.10,2013-11-11 12:49:00,
2013-11-11 08:04:00,37.0,28.0,30.11,NNW,338,0.0,-999.0,71,-99.99,,,0.00,weatherlink.com 1.10,2013-11-11 13:04:00,
2013-11-11 08:19:00,39.3,29.0,30.11,WSW,244,0.0,-999.0,66,-99.99,,,0.00,weatherlink.com 1.10,2013-11-11 13:19:00,
2013-11-11 08:34:00,41.6,31.0,30.12,NW,315,0.0,-999.0,65,-99.99,,,0.00,weatherlink.com 1.10,2013-11-11 13:34:00,
2013-11-11 08:49:00,43.1,30.0,30.11,NW,311,0.0,-999.0,61,-99.99,,,0.00,weatherlink.com 1.10,2013-11-11 13:49:00,
2013-11-11 09:04:00,44.7,31.0,30.11,SSW,192,0.0,-999.0,59,-99.99,,,0.00,weatherlink.com 1.10,2013-11-11 14:04:00,
2013-11-11 09:19:00,45.0,30.0,30.12,SE,136,0.0,-999.0,56,-99.99,,,0.00,weatherlink.com 1.10,2013-11-11 14:19:00,
2013-11-11 09:34:00,45.3,30.0,30.13,SW,221,1.0,-999.0,55,-99.99,,,0.00,weatherlink.com 1.10,2013-11-11 14:34:00,
2013-11-11 09:49:00,46.0,30.0,30.14,SW,224,0.0,-999.0,54,-99.99,,,0.00,weatherlink.com 1.10,2013-11-11 14:49:00,
2013-11-11 10:04:00,47.0,32.0,30.14,NW,311,0.0,-999.0,56,-99.99,,,0.00,weatherlink.com 1.10,2013-11-11 15:04:00,
2013-11-11 10:19:00,47.3,30.0,30.13,SSE,155,1.0,-999.0,51,-99.99,,,0.00,weatherlink.com 1.10,2013-11-11 15:19:00,
2013-11-11 10:34:00,47.9,30.0,30.13,WSW,240,0.0,-999.0,51,-99.99,,,0.00,weatherlink.com 1.10,2013-11-11 15:34:00,
2013-11-11 10:49:00,49.1,30.0,30.12,WSW,238,0.0,-999.0,49,-99.99,,,0.00,weatherlink.com 1.10,2013-11-11 15:49:00,
2013-11-11 11:04:00,49.0,29.0,30.11,ENE,74,1.0,-999.0,47,-99.99,,,0.00,weatherlink.com 1.10,2013-11-11 16:04:00,
2013-11-11 11:19:00,49.1,30.0,30.11,SSE,161,0.0,-999.0,48,-99.99,,,0.00,weatherlink.com 1.10,2013-11-11 16:19:00,
2013-11-11 11:34:00,49.4,29.0,30.10,East,86,0.0,-999.0,45,-99.99,,,0.00,weatherlink.com 1.10,2013-11-11 16:34:00,
2013-11-11 11:49:00,50.0,30.0,30.09,SE,128,0.0,-999.0,47,-99.99,,,0.00,weatherlink.com 1.10,2013-11-11 16:49:00,
2013-11-11 12:04:00,50.5,29.0,30.08,ESE,118,1.0,-999.0,43,-99.99,,,0.00,weatherlink.com 1.10,2013-11-11 17:04:00,
2013-11-11 12:19:00,51.1,30.0,30.07,SSW,205,2.0,-999.0,44,-99.99,,,0.00,weatherlink.com 1.10,2013-11-11 17:19:00,
2013-11-11 12:34:00,50.7,29.0,30.07,North,349,0.0,-999.0,43,-99.99,,,0.00,weatherlink.com 1.10,2013-11-11 17:34:00,
2013-11-11 12:49:00,50.3,27.0,30.05,ENE,61,2.0,-999.0,41,-99.99,,,0.00,weatherlink.com 1.10,2013-11-11 17:49:00,
2013-11-11 13:04:00,50.7,28.0,30.05,NW,324,1.0,-999.0,41,-99.99,,,0.00,weatherlink.com 1.10,2013-11-11 18:04:00,
2013-11-11 13:19:00,50.0,26.0,30.05,East,94,2.0,-999.0,39,-99.99,,,0.00,weatherlink.com 1.10,2013-11-11 18:19:00,
2013-11-11 13:34:00,49.0,25.0,30.03,ENE,69,0.0,-999.0,39,-99.99,,,0.00,weatherlink.com 1.10,2013-11-11 18:34:00,
2013-11-11 13:49:00,49.2,27.0,30.03,ENE,71,0.0,-999.0,42,-99.99,,,0.00,weatherlink.com 1.10,2013-11-11 18:49:00,
2013-11-11 14:04:00,50.0,24.0,30.02,ENE,74,1.0,-999.0,37,-99.99,,,0.00,weatherlink.com 1.10,2013-11-11 19:04:00,
2013-11-11 14:19:00,49.6,25.0,30.01,NNW,340,0.0,-999.0,39,-99.99,,,0.00,weatherlink.com 1.10,2013-11-11 19:19:00,
2013-11-11 14:34:00,49.8,28.0,30.01,SE,142,1.0,-999.0,43,-99.99,,,0.00,weatherlink.com 1.10,2013-11-11 19:34:00,
2013-11-11 14:49:00,49.3,28.0,30.01,ENE,65,2.0,-999.0,44,-99.99,,,0.00,weatherlink.com 1.10,2013-11-11 19:49:00,
2013-11-11 15:04:00,49.0,29.0,30.02,South,178,0.0,-999.0,47,-99.99,,,0.00,weatherlink.com 1.10,2013-11-11 20:04:00,
2013-11-11 15:19:00,48.2,28.0,30.02,East,80,0.0,-999.0,45,-99.99,,,0.00,weatherlink.com 1.10,2013-11-11 20:19:00,
2013-11-11 15:34:00,47.8,28.0,30.02,East,85,0.0,-999.0,46,-99.99,,,0.00,weatherlink.com 1.10,2013-11-11 20:34:00,
2013-11-11 15:49:00,47.7,28.0,30.02,ENE,77,0.0,-999.0,46,-99.99,,,0.00,weatherlink.com 1.10,2013-11-11 20:49:00,
2013-11-11 16:04:00,47.4,28.0,30.01,NE,55,0.0,-999.0,47,-99.99,,,0.00,weatherlink.com 1.10,2013-11-11 21:04:00,
2013-11-11 16:19:00,46.3,28.0,30.02,NE,55,0.0,-999.0,50,-99.99,,,0.00,weatherlink.com 1.10,2013-11-11 21:19:00,
2013-11-11 16:34:00,44.8,28.0,30.02,NE,55,0.0,-999.0,53,-99.99,,,0.00,weatherlink.com 1.10,2013-11-11 21:34:00,
2013-11-11 16:48:00,43.9,29.0,30.01,NE,55,0.0,-999.0,56,-99.99,,,0.00,weatherlink.com 1.10,2013-11-11 21:48:00,
2013-11-11 17:03:00,43.6,30.0,30.01,NE,55,0.0,-999.0,59,-99.99,,,0.00,weatherlink.com 1.10,2013-11-11 22:03:00,
2013-11-11 17:18:00,43.4,31.0,30.01,NE,55,0.0,-999.0,61,-99.99,,,0.00,weatherlink.com 1.10,2013-11-11 22:18:00,
2013-11-11 17:33:00,43.3,30.0,30.00,NE,55,0.0,-999.0,59,-99.99,,,0.00,weatherlink.com 1.10,2013-11-11 22:33:00,
2013-11-11 17:48:00,43.5,30.0,30.00,SE,124,0.0,-999.0,59,-99.99,,,0.00,weatherlink.com 1.10,2013-11-11 22:48:00,
2013-11-11 18:03:00,43.6,30.0,30.00,SSE,163,0.0,-999.0,59,-99.99,,,0.00,weatherlink.com 1.10,2013-11-11 23:03:00,
2013-11-11 18:18:00,43.2,30.0,30.00,SSE,162,0.0,-999.0,60,-99.99,,,0.00,weatherlink.com 1.10,2013-11-11 23:18:00,
2013-11-11 18:33:00,42.6,30.0,30.00,SSE,162,0.0,-999.0,62,-99.99,,,0.00,weatherlink.com 1.10,2013-11-11 23:33:00,
2013-11-11 18:48:00,41.9,31.0,30.00,SSE,162,0.0,-999.0,65,-99.99,,,0.00,weatherlink.com 1.10,2013-11-11 23:48:00,
2013-11-11 19:03:00,40.8,31.0,29.99,SSE,162,0.0,-999.0,67,-99.99,,,0.00,weatherlink.com 1.10,2013-11-12 00:03:00,
2013-11-11 19:18:00,40.3,32.0,29.99,SSE,162,0.0,-999.0,73,-99.99,,,0.00,weatherlink.com 1.10,2013-11-12 00:18:00,
2013-11-11 19:33:00,41.6,31.0,29.99,SE,134,0.0,-999.0,67,-99.99,,,0.00,weatherlink.com 1.10,2013-11-12 00:33:00,
2013-11-11 19:48:00,43.0,30.0,29.98,ESE,116,0.0,-999.0,60,-99.99,,,0.00,weatherlink.com 1.10,2013-11-12 00:48:00,
2013-11-11 20:03:00,43.1,29.0,29.97,NW,311,0.0,-999.0,59,-99.99,,,0.00,weatherlink.com 1.10,2013-11-12 01:03:00,
2013-11-11 20:18:00,42.2,29.0,29.97,NNW,330,0.0,-999.0,61,-99.99,,,0.00,weatherlink.com 1.10,2013-11-12 01:18:00,
2013-11-11 20:33:00,41.8,32.0,29.97,NW,309,0.0,-999.0,68,-99.99,,,0.00,weatherlink.com 1.10,2013-11-12 01:33:00,
2013-11-11 20:48:00,41.8,29.0,29.96,ENE,63,0.0,-999.0,61,-99.99,,,0.00,weatherlink.com 1.10,2013-11-12 01:48:00,
2013-11-11 21:04:00,42.9,29.0,29.96,SE,126,0.0,-999.0,59,-99.99,,,0.00,weatherlink.com 1.10,2013-11-12 02:04:00,
2013-11-11 21:18:00,43.8,30.0,29.96,ESE,105,0.0,-999.0,58,-99.99,,,0.00,weatherlink.com 1.10,2013-11-12 02:18:00,
2013-11-11 21:33:00,44.5,29.0,29.95,SE,128,0.0,-999.0,56,-99.99,,,0.00,weatherlink.com 1.10,2013-11-12 02:33:00,
2013-11-11 22:04:00,45.1,30.0,29.94,NE,46,0.0,-999.0,56,-99.99,,,0.00,weatherlink.com 1.10,2013-11-12 03:04:00,
2013-11-11 22:19:00,45.2,30.0,29.94,ENE,74,0.0,-999.0,56,-99.99,,,0.00,weatherlink.com 1.10,2013-11-12 03:19:00,
2013-11-11 22:34:00,45.0,30.0,29.94,South,179,1.0,-999.0,56,-99.99,,,0.00,weatherlink.com 1.10,2013-11-12 03:34:00,
2013-11-11 22:49:00,45.4,30.0,29.93,East,83,1.0,-999.0,56,-99.99,,,0.00,weatherlink.com 1.10,2013-11-12 03:49:00,
2013-11-11 23:04:00,45.6,30.0,29.93,ENE,62,1.0,-999.0,55,-99.99,,,0.00,weatherlink.com 1.10,2013-11-12 04:04:00,
2013-11-11 23:19:00,45.5,30.0,29.93,NNE,24,0.0,-999.0,56,-99.99,,,0.00,weatherlink.com 1.10,2013-11-12 04:19:00,
2013-11-11 23:34:00,45.3,30.0,29.93,NE,46,0.0,-999.0,56,-99.99,,,0.00,weatherlink.com 1.10,2013-11-12 04:34:00,
2013-11-11 23:49:00,45.6,31.0,29.93,ESE,116,0.0,-999.0,56,-99.99,,,0.00,weatherlink.com 1.10,2013-11-12 04:49:00,